Latest Weather Observations for Mount Magnet Airport

IDW60801

Issued at 12:03 pm WST Monday 30 March 2020 (issued every 10 minutes, with the page automatically refreshed every 10 minutes)

About weather observations | Map of weather stations | Latest weather observations for WA | Other Formats
Station Details ID: 007600 Name: MOUNT MAGNET AERO Lat: -28.12 Lon: 117.84 Height: 407.0 m
Data from the previous 72 hours. | See also: Recent months at Mount Magnet Airport
Date/Time
WST
Temp
°C
App
Temp
°C
Dew
Point
°C
Rel
Hum
%
Delta-T
°C
Wind Press
QNH
hPa
Press
MSL
hPa
Rain since
9am
mm
Dir  Spd
km/h
Gust
km/h
Spd
kts
Gust
kts
30/12:00pm 28.2 25.6 6.3 25 11.7 WNW 9 17 5 9 1015.9 1013.3 0.0
30/11:30am 26.8 24.7 6.8 28 10.7 N 7 11 4 6 1016.4 1013.8 0.0
30/11:00am 26.0 24.0 7.1 30 10.1 N 7 11 4 6 1017.1 1014.5 0.0
30/10:30am 25.1 23.3 7.3 32 9.5 E 6 9 3 5 1017.5 1014.9 0.0
30/10:00am 23.7 22.2 6.9 34 8.9 S 4 7 2 4 1017.7 1015.1 0.0
30/09:30am 22.8 19.9 6.6 35 8.5 SE 11 17 6 9 1017.8 1015.2 0.0
30/09:00am 21.5 18.8 5.8 36 8.0 SE 9 15 5 8 1018.0 1015.4 0.0
30/08:30am 20.3 17.3 5.9 39 7.3 SE 11 15 6 8 1017.8 1015.2 0.0
30/08:00am 18.7 15.3 5.9 43 6.4 SSE 13 19 7 10 1017.7 1015.1 0.0
30/07:30am 17.5 14.5 5.8 46 5.8 SSE 11 15 6 8 1017.6 1015.0 0.0
30/07:00am 16.6 14.0 5.9 49 5.3 S 9 11 5 6 1017.3 1014.7 0.0
30/06:30am 16.2 13.5 5.8 50 5.1 S 9 11 5 6 1017.1 1014.5 0.0
30/06:00am 16.4 14.1 5.7 49 5.3 SSE 7 9 4 5 1016.7 1014.1 0.0
30/05:30am 16.7 14.4 5.6 48 5.5 SSE 7 9 4 5 1016.7 1014.1 0.0
30/05:00am 17.0 14.3 5.6 47 5.6 SSE 9 11 5 6 1016.7 1014.1 0.0
30/04:30am 17.4 15.1 5.7 46 5.8 S 7 9 4 5 1016.7 1014.1 0.0
30/04:00am 17.7 15.4 5.6 45 6.0 S 7 9 4 5 1016.7 1014.1 0.0
30/03:30am 18.2 15.2 5.8 44 6.2 S 11 13 6 7 1016.9 1014.3 0.0
30/03:00am 18.6 15.5 5.5 42 6.5 SSE 11 13 6 7 1016.8 1014.2 0.0
30/02:30am 18.9 15.4 5.4 41 6.7 SSE 13 17 7 9 1016.6 1014.0 0.0
30/02:00am 19.0 15.5 5.5 41 6.7 S 13 17 7 9 1016.9 1014.3 0.0
30/01:30am 19.4 16.2 5.1 39 7.1 S 11 15 6 8 1017.0 1014.4 0.0
30/01:00am 19.8 15.8 5.1 38 7.3 S 15 19 8 10 1016.9 1014.3 0.0
30/12:30am 20.3 16.3 4.8 36 7.7 SSE 15 20 8 11 1017.0 1014.4 0.0
30/12:00am 20.8 16.0 4.8 35 8.0 SSE 19 24 10 13 1017.1 1014.5 0.0
 
Date/Time
WST
Temp
°C
App
Temp
°C
Dew
Point
°C
Rel
Hum
%
Delta-T
°C
Wind Press
QNH
hPa
Press
MSL
hPa
Rain since
9am
mm
Dir  Spd
km/h
Gust
km/h
Spd
kts
Gust
kts
29/11:30pm 21.2 16.2 4.7 34 8.2 S 20 24 11 13 1017.0 1014.4 0.0
29/11:00pm 21.5 17.1 5.0 34 8.3 S 17 22 9 12 1017.2 1014.6 0.0
29/10:30pm 21.7 18.7 6.0 36 8.1 S 11 13 6 7 1017.4 1014.8 0.0
29/10:00pm 22.2 19.2 6.0 35 8.3 SSW 11 13 6 7 1017.5 1014.9 0.0
29/09:30pm 22.8 19.7 5.7 33 8.8 S 11 13 6 7 1017.3 1014.7 0.0
29/09:00pm 23.4 20.7 5.8 32 9.1 SW 9 11 5 6 1017.2 1014.6 0.0
29/08:30pm 24.1 21.0 5.5 30 9.6 SSW 11 15 6 8 1017.0 1014.4 0.0
29/08:00pm 24.6 20.7 5.4 29 9.9 SW 15 20 8 11 1016.8 1014.2 0.0
29/07:30pm 25.0 20.8 5.7 29 10.1 SSW 17 20 9 11 1016.7 1014.1 0.0
29/07:00pm 25.6 21.4 5.8 28 10.4 SSW 17 20 9 11 1016.4 1013.8 0.0
29/06:30pm 26.2 21.6 5.7 27 10.8 SSW 19 24 10 13 1016.1 1013.5 0.0
29/06:00pm 26.8 22.8 5.1 25 11.3 SSW 15 20 8 11 1015.8 1013.2 0.0
29/05:30pm 27.2 22.7 6.0 26 11.2 SSW 19 26 10 14 1015.7 1013.1 0.0
29/05:00pm 27.9 24.2 6.1 25 11.6 WSW 15 22 8 12 1015.6 1013.0 0.0
29/04:30pm 28.3 24.9 5.8 24 12.0 SW 13 20 7 11 1015.5 1012.9 0.0
29/04:00pm 27.3 23.4 7.2 28 10.9 S 17 26 9 14 1015.5 1012.9 0.0
29/03:30pm 27.6 23.4 7.5 28 11.0 SW 19 26 10 14 1015.7 1013.1 0.0
29/03:00pm 27.5 24.5 7.9 29 10.8 WSW 13 20 7 11 1015.6 1013.0 0.0
29/02:30pm 27.8 24.9 8.1 29 10.9 S 13 28 7 15 1015.5 1012.9 0.0
29/02:00pm 27.7 23.5 7.5 28 11.0 SW 19 35 10 19 1015.6 1013.0 0.0
29/01:30pm 27.1 23.9 7.0 28 10.8 SW 13 20 7 11 1015.7 1013.1 0.0
29/01:00pm 26.4 22.6 7.4 30 10.3 SSW 17 26 9 14 1016.1 1013.5 0.0
29/12:30pm 26.9 24.8 8.4 31 10.2 W 9 17 5 9 1016.6 1014.0 0.0
29/12:00pm 26.0 24.0 8.5 33 9.6 SE 9 19 5 10 1016.9 1014.3 0.0
29/11:30am 25.2 22.4 8.7 35 9.1 SSE 13 17 7 9 1017.3 1014.7 0.0
29/11:00am 24.6 22.6 8.5 36 8.8 ESE 9 13 5 7 1017.8 1015.2 0.0
29/10:30am 23.8 21.7 8.2 37 8.4 SE 9 13 5 7 1018.2 1015.6 0.0
29/10:00am 22.8 20.3 8.1 39 7.9 ESE 11 17 6 9 1018.6 1016.0 0.0
29/09:30am 21.8 19.7 8.3 42 7.2 SE 9 15 5 8 1018.8 1016.3 0.0
29/09:00am 20.9 17.1 8.9 46 6.5 S 19 24 10 13 1018.7 1016.2 0.0
29/08:30am 20.3 16.5 8.9 48 6.1 S 19 24 10 13 1018.5 1015.9 0.0
29/08:00am 19.6 16.2 9.2 51 5.6 S 17 20 9 11 1018.0 1015.4 0.0
29/07:30am 18.9 15.4 8.8 52 5.4 S 17 22 9 12 1018.1 1015.5 0.0
29/07:00am 19.0 15.5 8.6 51 5.5 SSW 17 24 9 13 1017.9 1015.3 0.0
29/06:30am 19.3 15.3 8.3 49 5.8 S 19 22 10 12 1016.9 1014.3 0.0
29/06:00am 19.7 15.5 8.1 47 6.1 SSE 20 24 11 13 1016.2 1013.6 0.0
29/05:30am 20.1 16.7 7.8 45 6.5 S 15 17 8 9 1016.4 1013.8 0.0
29/05:00am 20.5 16.2 7.8 44 6.7 S 20 24 11 13 1016.3 1013.7 0.0
29/04:30am 20.9 16.2 7.9 43 6.9 S 22 30 12 16 1015.4 1012.8 0.0
29/04:00am 21.4 17.2 8.3 43 7.0 S 20 26 11 14 1015.6 1013.0 0.0
29/03:30am 22.0 18.8 8.5 42 7.3 SSE 15 20 8 11 1015.5 1012.9 0.0
29/03:00am 22.2 19.9 11.9 52 5.9 S 15 20 8 11 1015.4 1012.8 0.0
29/02:30am 22.3 20.2 12.5 53 5.7 SSW 15 20 8 11 1015.6 1013.0 0.0
29/02:00am 22.5 20.5 12.7 54 5.7 S 15 17 8 9 1015.4 1012.8 0.0
29/01:30am 22.8 20.9 13.0 54 5.7 SSW 15 20 8 11 1016.2 1013.6 0.0
29/01:00am 23.1 21.6 13.0 53 5.9 SSW 13 17 7 9 1016.3 1013.7 0.0
29/12:30am 23.3 21.4 12.9 52 6.1 SSW 15 20 8 11 1016.6 1014.0 0.0
29/12:00am 23.6 21.3 12.9 51 6.3 SSW 17 22 9 12 1017.0 1014.4 0.0
 
Date/Time
WST
Temp
°C
App
Temp
°C
Dew
Point
°C
Rel
Hum
%
Delta-T
°C
Wind Press
QNH
hPa
Press
MSL
hPa
Rain since
9am
mm
Dir  Spd
km/h
Gust
km/h
Spd
kts
Gust
kts
28/11:30pm 23.9 21.2 12.8 49 6.5 S 19 22 10 12 1016.3 1013.7 0.0
28/11:00pm 24.0 22.1 12.9 50 6.5 SW 15 20 8 11 1016.9 1014.3 0.0
28/10:30pm 24.2 22.3 13.1 50 6.5 SSW 15 20 8 11 1017.0 1014.4 0.0
28/10:00pm 24.4 21.7 13.0 49 6.7 SSW 19 24 10 13 1016.9 1014.3 0.0
28/09:30pm 24.6 21.9 12.9 48 6.9 S 19 26 10 14 1016.8 1014.2 0.0
28/09:00pm 25.1 21.8 12.7 46 7.3 SSW 22 28 12 15 1017.2 1014.6 0.0
28/08:30pm 25.4 21.9 13.3 47 7.2 SSW 24 32 13 17 1017.0 1014.4 0.0
28/08:00pm 26.3 22.8 13.4 45 7.7 SSW 24 30 13 16 1016.4 1013.8 0.0
28/07:30pm 26.5 23.8 13.6 45 7.7 SSW 20 28 11 15 1015.9 1013.3 0.0
28/07:00pm 27.0 24.2 14.4 46 7.7 SSW 22 30 12 16 1015.5 1012.9 0.0
28/06:30pm 27.5 25.1 14.5 45 7.9 SSW 20 30 11 16 1015.1 1012.5 0.0
28/06:00pm 28.0 24.2 14.6 44 8.2 SSW 28 37 15 20 1014.7 1012.1 0.0
28/05:30pm 29.1 25.1 14.1 40 9.2 SSW 28 37 15 20 1014.2 1011.5 0.0
28/05:00pm 30.5 27.3 11.9 31 11.0 SW 20 28 11 15 1014.1 1011.4 0.0
28/04:30pm 31.2 27.7 12.1 31 11.4 W 22 30 12 16 1013.8 1011.2 0.0
28/04:00pm 30.3 27.1 11.8 32 11.0 WSW 20 28 11 15 1014.0 1011.3 0.0
28/03:30pm 30.4 26.8 11.9 32 11.0 WSW 22 33 12 18 1014.2 1011.5 0.0
28/03:00pm 30.0 27.2 11.5 32 10.9 SW 17 26 9 14 1014.3 1011.7 0.0
28/02:30pm 30.1 27.4 11.6 32 10.9 WSW 17 28 9 15 1014.5 1011.9 0.0
28/02:00pm 28.8 26.3 10.9 33 10.4 SW 15 24 8 13 1014.6 1012.0 0.0
28/01:30pm 29.0 26.3 11.6 34 10.2 WSW 17 28 9 15 1015.0 1012.4 0.0
28/01:00pm 28.1 25.3 11.2 35 9.8 W 17 28 9 15 1015.6 1013.0 0.0
28/12:30pm 27.2 23.9 11.7 38 9.1 SSW 20 30 11 16 1016.0 1013.4 0.0
28/12:00pm 26.7 24.1 12.0 40 8.6 WSW 17 26 9 14 1016.6 1014.0 0.0
28/11:30am 25.9 22.6 11.6 40 8.3 SSW 20 28 11 15 1017.1 1014.5 0.0
28/11:00am 25.6 22.8 13.1 46 7.4 SW 20 28 11 15 1017.4 1014.8 0.0
28/10:30am 24.8 22.3 13.4 49 6.8 SSW 19 26 10 14 1017.5 1014.9 0.0
28/10:00am 23.9 21.3 13.7 53 6.1 SW 20 30 11 16 1017.8 1015.2 0.0
28/09:30am 22.8 20.4 13.8 57 5.3 SSW 19 26 10 14 1018.0 1015.4 0.0
28/09:00am 22.0 19.6 14.4 62 4.5 SW 20 24 11 13 1018.0 1015.4 0.0
28/08:30am 21.4 18.7 14.6 65 4.1 SW 22 30 12 16 1018.1 1015.5 0.0
28/08:00am 20.1 18.0 15.3 74 2.9 SW 20 30 11 16 1017.9 1015.3 0.0
28/07:50am 20.3 17.9 15.3 73 3.0 SW 22 30 12 16 1018.1 1015.5 0.0
28/07:30am 20.2 17.4 15.4 74 2.9 SW 24 30 13 16 1017.7 1015.1 0.0
28/07:27am 20.2 17.4 15.4 74 2.9 SSW 24 30 13 16 1017.6 1015.0 0.0
28/07:11am 20.0 18.2 15.6 76 2.7 SW 19 26 10 14 1017.5 1014.9 0.0
28/07:00am 19.9 18.3 16.0 78 2.4 SW 19 24 10 13 1017.2 1014.6 0.0
28/06:36am 19.7 18.1 16.0 79 2.2 SW 19 24 10 13 1017.0 1014.4 0.0
28/06:30am 19.7 18.5 16.2 80 2.1 SW 17 24 9 13 1017.0 1014.4 0.0
28/06:18am 19.7 18.5 16.2 80 2.1 SW 17 22 9 12 1016.8 1014.2 0.0
28/06:00am 19.9 18.4 16.3 80 2.2 SW 19 24 10 13 1016.6 1014.0 0.0
28/05:30am 20.0 18.9 16.4 80 2.2 SW 17 24 9 13 1016.3 1013.7 0.0
28/05:29am 20.1 19.1 16.5 80 2.2 SW 17 28 9 15 1016.3 1013.7 0.0
28/05:00am 20.4 18.5 16.8 80 2.2 SW 22 28 12 15 1016.2 1013.6 0.0
28/04:30am 20.6 19.3 16.8 79 2.3 SW 19 26 10 14 1016.0 1013.4 0.0
28/04:00am 21.0 19.9 16.4 75 2.8 WSW 17 20 9 11 1015.8 1013.2 0.0
28/03:30am 21.5 20.5 16.5 73 3.1 SW 17 20 9 11 1015.5 1012.9 0.0
28/03:00am 22.1 20.5 16.1 69 3.7 WSW 19 24 10 13 1015.5 1012.9 0.0
28/02:30am 22.9 21.7 16.2 66 4.1 SW 17 24 9 13 1015.4 1012.8 0.0
28/02:00am 23.6 21.8 15.9 62 4.7 SW 20 26 11 14 1015.5 1012.9 0.0
28/01:30am 24.4 22.2 14.8 55 5.8 SW 20 28 11 15 1015.3 1012.7 0.0
28/01:00am 25.3 21.9 13.8 49 6.9 SW 24 35 13 19 1015.2 1012.6 0.0
28/12:30am 26.2 23.6 13.3 45 7.7 SW 19 24 10 13 1015.2 1012.6 0.0
28/12:00am 26.8 24.6 13.2 43 8.1 SW 17 20 9 11 1015.2 1012.6 0.0
 
Date/Time
WST
Temp
°C
App
Temp
°C
Dew
Point
°C
Rel
Hum
%
Delta-T
°C
Wind Press
QNH
hPa
Press
MSL
hPa
Rain since
9am
mm
Dir  Spd
km/h
Gust
km/h
Spd
kts
Gust
kts
27/11:30pm 27.6 25.2 12.8 40 8.8 SW 17 26 9 14 1015.0 1012.4 0.0
27/11:00pm 28.5 26.0 12.4 37 9.6 SW 17 22 9 12 1015.1 1012.5 0.0
27/10:30pm 29.4 26.4 11.9 34 10.3 SW 19 22 10 12 1015.0 1012.4 0.0
27/10:00pm 30.0 28.4 11.5 32 10.9 SW 11 15 6 8 1015.1 1012.5 0.0
27/09:30pm 31.1 28.2 11.0 29 11.8 WSW 17 24 9 13 1014.9 1012.3 0.0
27/09:00pm 32.0 28.7 9.5 25 13.0 WSW 17 22 9 12 1014.7 1012.1 0.0
27/08:30pm 32.8 29.0 7.6 21 14.1 W 17 24 9 13 1014.4 1011.8 0.0
27/08:00pm 33.3 29.4 7.3 20 14.6 WNW 17 19 9 10 1014.1 1011.4 0.0
27/07:30pm 33.8 30.3 7.0 19 15.0 WNW 15 19 8 10 1013.7 1011.1 0.0
27/07:00pm 34.7 30.2 6.1 17 15.8 W 19 26 10 14 1013.4 1010.8 0.0
27/06:30pm 35.4 29.7 4.8 15 16.6 W 24 33 13 18 1013.1 1010.5 0.0
27/06:00pm 36.1 29.9 6.3 16 16.7 WNW 28 41 15 22 1013.0 1010.4 0.0
27/05:30pm 36.4 31.1 6.6 16 16.7 W 24 33 13 18 1013.0 1010.4 0.0
27/05:00pm 37.0 30.0 6.1 15 17.3 WNW 32 43 17 23 1012.9 1010.3 0.0
27/04:30pm 37.9 31.4 4.7 13 18.3 WNW 28 43 15 23 1012.9 1010.3 0.0
27/04:00pm 38.0 30.6 4.8 13 18.3 WNW 33 48 18 26 1012.8 1010.2 0.0
27/03:33pm 38.4 30.8 4.0 12 18.8 NW 33 52 18 28 1012.9 1010.3 0.0
27/03:30pm 38.6 31.6 4.1 12 18.9 NW 30 48 16 26 1012.9 1010.3 0.0
27/03:21pm 38.0 30.6 4.8 13 18.3 WNW 33 52 18 28 1013.0 1010.4 0.0
27/03:00pm 38.7 31.4 5.4 13 18.6 WNW 33 46 18 25 1013.1 1010.5 0.0
27/02:35pm 38.6 32.2 5.3 13 18.5 WNW 28 46 15 25 1013.3 1010.7 0.0
27/02:30pm 38.2 32.1 5.0 13 18.4 WNW 26 44 14 24 1013.3 1010.7 0.0
27/02:06pm 38.0 31.5 4.8 13 18.3 NNW 28 48 15 26 1013.5 1010.9 0.0
27/02:00pm 38.1 31.3 4.9 13 18.3 NNW 30 46 16 25 1013.7 1011.1 0.0
27/01:30pm 37.4 30.5 4.4 13 18.0 NNW 30 46 16 25 1014.2 1011.5 0.0
27/01:00pm 37.1 30.5 4.1 13 17.9 NNW 28 39 15 21 1014.7 1012.1 0.0
27/12:30pm 36.1 29.9 4.4 14 17.2 N 26 35 14 19 1015.3 1012.7 0.0

Other formats

Comma delimited format used in spreadsheet applications
http://www.bom.gov.au/fwo/IDW60801/IDW60801.94429.axf

JavaScript Object Notation format (JSON) in row-major order
http://www.bom.gov.au/fwo/IDW60801/IDW60801.94429.json

Data quality

Most of these data are generated automatically and are frequently updated. Quality checks on data are not normally performed. It is possible for incorrect values to appear. Refer to information at About Latest Weather Observations and please check the disclaimer before using these data.